Time;durP1;ratioP1;P1;durP2;ratioP2;P2;SDS_P1;SDS_P2;PMS_P1;PMS_P2;Temp;Humidity;BMP_temperature;BMP_pressure;BME280_temperature;BME280_humidity;BME280_pressure;Samples;Min_cycle;Max_cycle;Signal;HPM_P1;HPM_P2
2022/03/12 00:02:15;;;;;;;;;;;;;;;3.73;44.96;96537.56;4987006;28;20065;-72
2022/03/12 00:04:42;;;;;;;;;;;;;;;3.72;44.59;96533.38;5008410;28;19962;-73
2022/03/12 00:07:11;;;;;;;;;;;;;;;3.72;45.35;96535.97;4998599;28;19953;-72
2022/03/12 00:09:37;;;;;;;;;;;;;;;3.72;44.94;96535.97;4987171;28;19962;-72
2022/03/12 00:12:04;;;;;;;;;;;;;;;3.72;44.88;96541.16;5007525;28;19966;-71
2022/03/12 00:14:32;;;;;;;;;;;;;;;3.71;44.62;96538.72;4982588;28;19962;-73
2022/03/12 00:16:58;;;;;;;;;;;;;;;3.70;44.98;96550.91;5001387;28;20311;-71
2022/03/12 00:19:24;;;;;;;;;;;;;;;3.70;45.09;96550.91;5002583;28;19965;-72
2022/03/12 00:21:50;;;;;;;;;;;;;;;3.70;45.12;96548.28;5002865;28;19959;-72
2022/03/12 00:24:17;;;;;;;;;;;;;;;3.70;45.46;96550.91;5004592;28;20416;-72
2022/03/12 00:26:44;;;;;;;;;;;;;;;3.70;45.61;96547.50;4998717;28;19955;-74
2022/03/12 00:29:14;;;;;;;;;;;;;;;3.70;45.17;96547.50;5007960;28;19963;-72
2022/03/12 00:31:45;;;;;;;;;;;;;;;3.70;45.47;96553.50;5011273;28;19966;-72
2022/03/12 00:34:11;;;;;;;;;;;;;;;3.70;45.60;96552.69;5007612;28;19960;-71
2022/03/12 00:36:37;;;;;;;;;;;;;;;3.69;45.13;96553.66;5013167;28;19959;-72
2022/03/12 00:39:04;;;;;;;;;;;;;;;3.69;45.07;96551.06;5005453;28;19954;-71
2022/03/12 00:41:30;;;;;;;;;;;;;;;3.70;45.29;96544.91;5003749;28;19960;-71
2022/03/12 00:43:56;;;;;;;;;;;;;;;3.68;45.07;96539.88;5009071;28;19992;-71
2022/03/12 00:46:22;;;;;;;;;;;;;;;3.68;45.42;96547.66;5004383;28;20080;-71
2022/03/12 00:48:48;;;;;;;;;;;;;;;3.67;45.02;96535.66;5005634;28;19962;-70
2022/03/12 00:51:14;;;;;;;;;;;;;;;3.70;45.49;96543.13;5012558;28;20378;-73
2022/03/12 00:53:40;;;;;;;;;;;;;;;3.72;44.62;96546.34;5011121;28;19971;-74
2022/03/12 00:56:07;;;;;;;;;;;;;;;3.72;45.32;96545.53;5005928;28;19954;-71
2022/03/12 00:58:34;;;;;;;;;;;;;;;3.73;44.61;96542.75;5003406;28;19959;-73
2022/03/12 01:01:01;;;;;;;;;;;;;;;3.72;45.02;96541.16;5006190;28;20004;-73
2022/03/12 01:03:27;;;;;;;;;;;;;;;3.72;44.98;96545.53;5006712;28;19958;-71
2022/03/12 01:05:54;;;;;;;;;;;;;;;3.71;45.24;96555.09;5011358;28;19957;-73
2022/03/12 01:08:20;;;;;;;;;;;;;;;3.70;44.94;96558.69;5003925;28;19955;-72
2022/03/12 01:10:46;;;;;;;;;;;;;;;3.69;45.18;96564.81;5005008;28;19947;-71
2022/03/12 01:13:12;;;;;;;;;;;;;;;3.68;45.22;96568.41;5011789;28;19968;-71
2022/03/12 01:15:39;;;;;;;;;;;;;;;3.68;45.35;96563.22;5006712;28;19979;-72
2022/03/12 01:18:13;;;;;;;;;;;;;;;3.67;45.13;96566.78;5004202;28;19951;-71
2022/03/12 01:20:40;;;;;;;;;;;;;;;3.68;45.51;96570.22;5006441;28;19952;-70
2022/03/12 01:23:06;;;;;;;;;;;;;;;3.65;45.54;96563.56;5003870;28;19947;-71
2022/03/12 01:25:32;;;;;;;;;;;;;;;3.65;45.86;96566.13;5005453;28;19968;-71
2022/03/12 01:27:58;;;;;;;;;;;;;;;3.62;45.83;96564.72;5016534;28;19961;-71
2022/03/12 01:30:28;;;;;;;;;;;;;;;3.60;46.01;96571.03;5007310;28;19950;-73
2022/03/12 01:32:54;;;;;;;;;;;;;;;3.57;46.44;96566.19;5001569;28;19967;-73
2022/03/12 01:35:20;;;;;;;;;;;;;;;3.55;46.69;96570.72;5007166;28;20026;-72
2022/03/12 01:37:46;;;;;;;;;;;;;;;3.53;46.36;96563.16;5004768;28;20003;-73
2022/03/12 01:40:12;;;;;;;;;;;;;;;3.50;46.16;96558.28;5011324;28;19965;-71
2022/03/12 01:42:37;;;;;;;;;;;;;;;3.49;46.72;96555.88;5007391;28;19963;-72
2022/03/12 01:45:09;;;;;;;;;;;;;;;3.48;46.85;96549.88;5010211;28;19978;-73
2022/03/12 01:47:34;;;;;;;;;;;;;;;3.47;46.93;96545.69;5006132;28;19956;-73
2022/03/12 01:50:01;;;;;;;;;;;;;;;3.47;47.22;96548.28;5005493;28;20011;-73
2022/03/12 01:52:27;;;;;;;;;;;;;;;3.47;47.49;96552.66;5007701;28;19965;-73
2022/03/12 01:54:54;;;;;;;;;;;;;;;3.48;46.68;96549.88;5009040;28;19960;-74
2022/03/12 01:57:20;;;;;;;;;;;;;;;3.51;46.25;96551.31;5002356;28;20346;-71
2022/03/12 01:59:46;;;;;;;;;;;;;;;3.53;46.06;96549.34;4990008;28;19953;-71
2022/03/12 02:02:13;;;;;;;;;;;;;;;3.55;46.07;96552.59;5008695;28;19965;-72
2022/03/12 02:04:39;;;;;;;;;;;;;;;3.57;45.85;96548.03;5000788;28;19959;-71
2022/03/12 02:07:05;;;;;;;;;;;;;;;3.56;45.90;96552.41;5007728;28;19960;-71
2022/03/12 02:09:31;;;;;;;;;;;;;;;3.56;45.93;96549.81;5010587;28;19950;-71
2022/03/12 02:11:57;;;;;;;;;;;;;;;3.56;45.92;96543.84;5008803;28;20468;-71
2022/03/12 02:14:24;;;;;;;;;;;;;;;3.53;46.54;96547.59;5005319;28;19964;-71
2022/03/12 02:17:00;;;;;;;;;;;;;;;3.51;46.82;96546.13;5005689;28;19958;-71
2022/03/12 02:19:27;;;;;;;;;;;;;;;3.48;46.70;96549.06;5003239;28;19950;-71
2022/03/12 02:21:55;;;;;;;;;;;;;;;3.44;47.26;96551.19;4977453;28;19954;-71
2022/03/12 02:24:22;;;;;;;;;;;;;;;3.40;47.49;96544.72;5008327;28;19954;-71
2022/03/12 02:26:48;;;;;;;;;;;;;;;3.37;47.44;96545.09;5005764;28;20320;-71
2022/03/12 02:29:22;;;;;;;;;;;;;;;3.35;47.69;96547.03;5003162;28;20042;-71
2022/03/12 02:31:49;;;;;;;;;;;;;;;3.34;47.51;96545.41;5006142;28;19959;-70
2022/03/12 02:34:22;;;;;;;;;;;;;;;3.31;47.09;96543.16;5011298;28;19972;-71
2022/03/12 02:36:49;;;;;;;;;;;;;;;3.29;47.30;96551.09;5005033;28;19955;-71
2022/03/12 02:39:16;;;;;;;;;;;;;;;3.29;47.84;96558.06;5015027;28;19963;-72
2022/03/12 02:41:42;;;;;;;;;;;;;;;3.28;47.30;96564.25;5002998;28;19949;-72
2022/03/12 02:44:17;;;;;;;;;;;;;;;3.28;47.70;96559.06;5003297;28;19953;-73
2022/03/12 02:46:45;;;;;;;;;;;;;;;3.25;47.88;96555.84;5008208;28;19982;-72
2022/03/12 02:49:11;;;;;;;;;;;;;;;3.24;47.47;96559.38;5006851;28;19976;-72
2022/03/12 02:51:40;;;;;;;;;;;;;;;3.21;47.85;96562.34;5006511;28;19960;-73
2022/03/12 02:54:06;;;;;;;;;;;;;;;3.20;47.84;96565.88;5004944;28;19979;-72
2022/03/12 02:56:35;;;;;;;;;;;;;;;3.16;47.75;96562.00;5005036;28;19962;-71
2022/03/12 02:59:01;;;;;;;;;;;;;;;3.15;47.57;96568.19;5004870;28;19952;-71
2022/03/12 03:01:27;;;;;;;;;;;;;;;3.15;47.98;96564.75;5004386;28;20011;-71
2022/03/12 03:03:53;;;;;;;;;;;;;;;3.16;47.96;96566.41;5002213;28;19962;-72
2022/03/12 03:06:20;;;;;;;;;;;;;;;3.17;48.38;96570.59;5005535;28;19967;-72
2022/03/12 03:08:46;;;;;;;;;;;;;;;3.17;48.09;96570.59;5006616;28;19957;-72
2022/03/12 03:11:16;;;;;;;;;;;;;;;3.16;48.42;96577.56;5008030;28;19966;-72
2022/03/12 03:13:44;;;;;;;;;;;;;;;3.16;47.97;96576.75;4999252;28;19968;-72
2022/03/12 03:16:24;;;;;;;;;;;;;;;3.16;47.95;96572.38;5006114;28;19946;-72
2022/03/12 03:18:52;;;;;;;;;;;;;;;3.18;47.75;96574.81;5008684;28;20311;-71
2022/03/12 03:21:19;;;;;;;;;;;;;;;3.19;47.82;96581.59;5004868;28;19960;-71
2022/03/12 03:23:45;;;;;;;;;;;;;;;3.19;47.24;96577.25;5014198;28;19976;-73
2022/03/12 03:26:12;;;;;;;;;;;;;;;3.18;47.63;96578.19;5004252;28;19961;-71
2022/03/12 03:28:38;;;;;;;;;;;;;;;3.18;47.86;96572.22;5003750;28;19974;-71
2022/03/12 03:31:04;;;;;;;;;;;;;;;3.20;47.85;96572.84;5004139;28;20068;-73
2022/03/12 03:33:30;;;;;;;;;;;;;;;3.21;47.87;96577.06;5002252;28;19970;-72
2022/03/12 03:35:56;;;;;;;;;;;;;;;3.20;48.56;96578.03;5004797;28;19950;-72
2022/03/12 03:38:22;;;;;;;;;;;;;;;3.20;47.95;96575.44;5001834;28;19955;-71
2022/03/12 03:40:49;;;;;;;;;;;;;;;3.20;47.55;96584.03;5004905;28;19955;-71
2022/03/12 03:43:18;;;;;;;;;;;;;;;3.21;47.49;96584.81;5006204;28;19953;-71
2022/03/12 03:45:44;;;;;;;;;;;;;;;3.22;47.41;96583.88;5006671;28;20345;-72
2022/03/12 03:48:12;;;;;;;;;;;;;;;3.22;47.27;96579.47;4995401;28;19966;-73
2022/03/12 03:50:39;;;;;;;;;;;;;;;3.21;47.39;96590.00;5007741;28;20401;-73
2022/03/12 03:53:05;;;;;;;;;;;;;;;3.19;47.74;96584.19;5004246;28;19972;-71
2022/03/12 03:55:32;;;;;;;;;;;;;;;3.18;47.88;96578.19;5010430;28;20429;-73
2022/03/12 03:57:59;;;;;;;;;;;;;;;3.17;47.70;96574.00;5008504;28;19946;-73
2022/03/12 04:00:25;;;;;;;;;;;;;;;3.18;47.99;96577.41;5001779;28;19975;-73
2022/03/12 04:03:13;;;;;;;;;;;;;;;3.19;48.25;96579.00;5004779;28;19952;-73
2022/03/12 04:05:38;;;;;;;;;;;;;;;3.18;48.56;96583.38;5002907;28;19957;-73
2022/03/12 04:08:06;;;;;;;;;;;;;;;3.19;48.74;96581.59;5003688;28;19949;-73
2022/03/12 04:10:35;;;;;;;;;;;;;;;3.22;48.73;96594.22;5006930;28;19955;-73
2022/03/12 04:13:02;;;;;;;;;;;;;;;3.22;48.60;96592.44;5002376;28;19961;-73
2022/03/12 04:15:28;;;;;;;;;;;;;;;3.22;49.15;96595.03;5004979;28;20405;-72
2022/03/12 04:17:54;;;;;;;;;;;;;;;3.21;49.15;96600.38;5005068;28;19954;-72
2022/03/12 04:20:21;;;;;;;;;;;;;;;3.21;49.19;96601.19;5003509;28;19957;-72
2022/03/12 04:22:48;;;;;;;;;;;;;;;3.21;48.76;96606.38;4999623;28;19950;-72
2022/03/12 04:25:15;;;;;;;;;;;;;;;3.16;48.29;96607.84;5003661;28;19956;-72
2022/03/12 04:27:44;;;;;;;;;;;;;;;3.05;49.14;96611.63;5007819;28;19965;-72
2022/03/12 04:30:11;;;;;;;;;;;;;;;3.00;48.82;96609.53;5003852;28;19947;-72
2022/03/12 04:32:37;;;;;;;;;;;;;;;3.00;49.77;96612.13;4998463;28;19979;-72
2022/03/12 04:35:05;;;;;;;;;;;;;;;3.01;49.08;96615.50;5006393;28;20400;-72
2022/03/12 04:37:32;;;;;;;;;;;;;;;3.03;48.67;96613.56;4994615;28;20450;-72
2022/03/12 04:39:58;;;;;;;;;;;;;;;3.03;48.94;96619.53;5008921;28;19958;-69
2022/03/12 04:42:24;;;;;;;;;;;;;;;3.03;49.12;96629.91;5002462;28;19962;-71
2022/03/12 04:44:50;;;;;;;;;;;;;;;3.04;49.05;96630.72;5011933;28;19973;-71
2022/03/12 04:47:18;;;;;;;;;;;;;;;3.03;48.77;96632.50;5000477;28;19970;-71
2022/03/12 04:49:44;;;;;;;;;;;;;;;3.04;48.98;96636.72;4987856;28;20333;-71
2022/03/12 04:52:13;;;;;;;;;;;;;;;3.01;49.45;96637.03;5007234;28;19961;-72
2022/03/12 04:54:39;;;;;;;;;;;;;;;3.02;49.57;96637.84;5001663;28;19957;-72
2022/03/12 04:57:05;;;;;;;;;;;;;;;3.02;49.56;96637.84;4998849;28;19980;-72
2022/03/12 04:59:31;;;;;;;;;;;;;;;3.00;49.56;96640.63;5010060;28;19950;-71
2022/03/12 05:01:59;;;;;;;;;;;;;;;3.03;49.42;96642.06;5003193;28;20428;-71
2022/03/12 05:04:25;;;;;;;;;;;;;;;3.04;49.23;96646.25;5004871;28;19961;-70
2022/03/12 05:06:51;;;;;;;;;;;;;;;3.05;49.21;96646.09;5001536;28;19969;-71
2022/03/12 05:09:19;;;;;;;;;;;;;;;3.08;49.40;96644.16;5001970;28;20414;-71
2022/03/12 05:11:45;;;;;;;;;;;;;;;3.09;48.98;96648.34;5008087;28;20416;-70
2022/03/12 05:14:16;;;;;;;;;;;;;;;3.08;49.28;96642.38;4986704;28;19967;-70
2022/03/12 05:16:44;;;;;;;;;;;;;;;3.09;49.60;96643.16;5007670;28;19963;-71
2022/03/12 05:19:10;;;;;;;;;;;;;;;3.09;49.77;96650.94;5004711;28;19978;-71
2022/03/12 05:21:36;;;;;;;;;;;;;;;3.08;50.39;96652.72;5012998;28;19957;-72
2022/03/12 05:24:02;;;;;;;;;;;;;;;3.09;49.94;96654.34;5004260;28;20277;-72
2022/03/12 05:26:28;;;;;;;;;;;;;;;3.09;49.67;96653.53;5003197;28;19960;-71
2022/03/12 05:28:54;;;;;;;;;;;;;;;3.10;50.35;96647.38;5010506;28;19968;-70
2022/03/12 05:31:20;;;;;;;;;;;;;;;3.08;50.03;96651.94;5009498;28;19959;-71
2022/03/12 05:33:46;;;;;;;;;;;;;;;3.08;50.44;96652.72;5002607;28;20008;-70
2022/03/12 05:36:12;;;;;;;;;;;;;;;3.06;50.39;96652.09;5005241;28;19961;-72
2022/03/12 05:38:38;;;;;;;;;;;;;;;3.04;50.65;96654.84;5012013;28;19964;-71
2022/03/12 05:41:09;;;;;;;;;;;;;;;3.02;50.55;96648.19;5000751;28;20420;-71
2022/03/12 05:43:43;;;;;;;;;;;;;;;3.02;50.60;96651.63;5007109;28;20427;-70
2022/03/12 05:46:10;;;;;;;;;;;;;;;3.02;50.86;96653.38;5004292;28;19983;-70
2022/03/12 05:48:37;;;;;;;;;;;;;;;2.99;50.89;96659.72;5012969;28;19957;-71
2022/03/12 05:51:03;;;;;;;;;;;;;;;2.96;50.57;96657.47;5003063;28;19944;-71
2022/03/12 05:53:30;;;;;;;;;;;;;;;2.95;50.36;96666.19;5006159;28;19971;-71
2022/03/12 05:55:56;;;;;;;;;;;;;;;2.94;50.75;96662.00;5010673;28;19960;-71
2022/03/12 05:58:26;;;;;;;;;;;;;;;2.93;51.40;96664.75;5001336;28;19991;-71
2022/03/12 06:00:54;;;;;;;;;;;;;;;2.90;50.99;96668.47;5003621;28;19954;-72
2022/03/12 06:03:24;;;;;;;;;;;;;;;2.89;50.69;96684.19;4984283;28;19957;-71
2022/03/12 06:05:55;;;;;;;;;;;;;;;2.88;50.34;96677.34;5002626;28;20426;-72
2022/03/12 06:08:22;;;;;;;;;;;;;;;2.88;50.42;96683.38;5009430;28;19958;-71
2022/03/12 06:10:51;;;;;;;;;;;;;;;2.88;50.56;96698.09;4991724;28;20418;-71
2022/03/12 06:13:17;;;;;;;;;;;;;;;2.84;50.67;96697.63;5006591;28;19973;-72
2022/03/12 06:15:48;;;;;;;;;;;;;;;2.80;51.68;96691.94;5007237;28;19960;-70
2022/03/12 06:18:15;;;;;;;;;;;;;;;2.74;50.66;96694.38;5005054;28;19966;-71
2022/03/12 06:20:42;;;;;;;;;;;;;;;2.71;50.97;96687.75;5006201;28;19959;-71
2022/03/12 06:23:08;;;;;;;;;;;;;;;2.72;51.46;96683.38;5005739;28;19946;-71
2022/03/12 06:25:34;;;;;;;;;;;;;;;2.75;51.69;96683.88;5006669;28;20005;-72
2022/03/12 06:28:01;;;;;;;;;;;;;;;2.79;51.89;96707.63;5001817;28;19956;-71
2022/03/12 06:30:28;;;;;;;;;;;;;;;2.84;51.81;96692.44;5008142;28;19968;-71
2022/03/12 06:32:55;;;;;;;;;;;;;;;2.90;51.68;96699.56;5008270;28;19959;-71
2022/03/12 06:35:22;;;;;;;;;;;;;;;2.97;51.78;96708.28;5007398;28;19962;-71
2022/03/12 06:37:48;;;;;;;;;;;;;;;3.06;51.78;96706.50;4999782;28;19965;-72
2022/03/12 06:40:15;;;;;;;;;;;;;;;3.19;51.42;96705.97;5015281;28;20054;-71
2022/03/12 06:42:44;;;;;;;;;;;;;;;3.37;51.05;96705.81;5000801;28;19988;-70
2022/03/12 06:45:15;;;;;;;;;;;;;;;3.64;50.74;96700.19;5011158;28;19977;-71
2022/03/12 06:47:42;;;;;;;;;;;;;;;3.92;50.37;96709.34;5004337;28;19975;-71
2022/03/12 06:50:09;;;;;;;;;;;;;;;4.24;49.67;96708.34;5004620;28;19962;-71
2022/03/12 06:52:35;;;;;;;;;;;;;;;4.64;49.01;96709.88;5005249;28;20428;-70
2022/03/12 06:55:01;;;;;;;;;;;;;;;5.09;47.87;96704.81;5010447;28;19976;-71
2022/03/12 06:57:27;;;;;;;;;;;;;;;5.45;46.97;96701.53;5004045;28;19961;-72
2022/03/12 06:59:52;;;;;;;;;;;;;;;5.72;46.55;96704.50;4998641;28;19960;-72
2022/03/12 07:02:18;;;;;;;;;;;;;;;5.96;45.86;96709.41;5004757;28;19964;-72
2022/03/12 07:04:44;;;;;;;;;;;;;;;6.16;45.03;96701.84;5005400;28;20027;-71
2022/03/12 07:07:10;;;;;;;;;;;;;;;6.26;44.82;96702.34;5006904;28;19977;-71
2022/03/12 07:09:37;;;;;;;;;;;;;;;6.38;44.88;96701.88;5005860;28;20367;-71
2022/03/12 07:12:03;;;;;;;;;;;;;;;6.46;44.22;96705.16;4998581;28;19948;-71
2022/03/12 07:14:29;;;;;;;;;;;;;;;6.56;44.17;96698.84;5004787;28;19964;-71
2022/03/12 07:16:55;;;;;;;;;;;;;;;6.77;43.51;96700.66;5004661;28;20007;-71
2022/03/12 07:19:22;;;;;;;;;;;;;;;7.04;43.14;96692.03;5006347;28;19961;-71
2022/03/12 07:21:49;;;;;;;;;;;;;;;7.28;42.50;96692.59;5006135;28;19961;-71
2022/03/12 07:24:15;;;;;;;;;;;;;;;7.45;42.03;96695.72;4999160;28;20362;-71
2022/03/12 07:26:42;;;;;;;;;;;;;;;7.64;42.42;96692.44;5003167;28;19956;-71
2022/03/12 07:29:08;;;;;;;;;;;;;;;7.90;42.17;96694.34;5009921;28;19953;-72
2022/03/12 07:31:37;;;;;;;;;;;;;;;8.16;40.90;96699.88;5005491;28;19955;-71
2022/03/12 07:34:03;;;;;;;;;;;;;;;8.32;40.19;96702.94;4987695;28;19978;-73
2022/03/12 07:36:29;;;;;;;;;;;;;;;8.58;40.41;96698.00;4999607;28;19959;-73
2022/03/12 07:38:58;;;;;;;;;;;;;;;8.77;40.07;96697.22;5002851;28;20041;-73
2022/03/12 07:41:25;;;;;;;;;;;;;;;9.00;40.20;96712.50;5003405;28;19964;-73
2022/03/12 07:43:52;;;;;;;;;;;;;;;9.23;39.62;96708.69;5011182;28;19982;-73
2022/03/12 07:46:18;;;;;;;;;;;;;;;9.31;39.40;96713.72;4998381;28;19980;-72
2022/03/12 07:48:44;;;;;;;;;;;;;;;9.42;39.11;96714.91;5005977;28;20446;-72
2022/03/12 07:51:10;;;;;;;;;;;;;;;9.47;38.46;96720.31;5004851;28;19953;-71
2022/03/12 07:53:39;;;;;;;;;;;;;;;9.53;39.03;96722.97;5001492;28;20049;-73
2022/03/12 07:56:05;;;;;;;;;;;;;;;9.70;39.10;96725.13;5004018;28;20342;-72
2022/03/12 07:58:32;;;;;;;;;;;;;;;9.82;38.27;96718.25;5008162;28;19953;-74
2022/03/12 08:00:58;;;;;;;;;;;;;;;9.81;38.14;96721.09;5006292;28;19960;-72
2022/03/12 08:03:24;;;;;;;;;;;;;;;9.75;38.06;96726.13;5013581;28;19971;-71
2022/03/12 08:05:50;;;;;;;;;;;;;;;9.54;37.98;96726.38;4981110;28;19967;-72
2022/03/12 08:08:17;;;;;;;;;;;;;;;9.28;39.01;96733.25;5002706;28;19957;-72
2022/03/12 08:13:29;;;;;;;;;;;;;;;9.24;39.75;96728.59;5006376;28;20363;-72
2022/03/12 08:15:55;;;;;;;;;;;;;;;9.43;39.77;96724.34;5003045;28;19961;-72
2022/03/12 08:18:22;;;;;;;;;;;;;;;9.30;38.65;96725.19;5000870;28;19975;-72
2022/03/12 08:20:48;;;;;;;;;;;;;;;9.20;38.71;96749.16;5004378;28;19970;-72
2022/03/12 08:23:14;;;;;;;;;;;;;;;9.12;39.41;96734.47;5008029;28;19963;-72
2022/03/12 08:25:40;;;;;;;;;;;;;;;9.14;39.29;96736.88;5002942;28;19964;-72
2022/03/12 08:28:06;;;;;;;;;;;;;;;9.30;38.94;96746.13;5005815;28;20421;-72
2022/03/12 08:30:33;;;;;;;;;;;;;;;9.57;38.58;96736.44;4999645;28;19976;-72
2022/03/12 08:32:59;;;;;;;;;;;;;;;9.81;38.50;96739.44;4998809;28;19967;-72
2022/03/12 08:35:25;;;;;;;;;;;;;;;9.98;37.98;96737.97;5007038;28;19977;-72
2022/03/12 08:37:50;;;;;;;;;;;;;;;9.98;37.70;96745.81;5008954;28;20019;-73
2022/03/12 08:40:17;;;;;;;;;;;;;;;10.08;37.26;96743.56;5002669;28;19970;-72
2022/03/12 08:42:43;;;;;;;;;;;;;;;10.26;37.37;96742.88;5000276;28;19955;-72
2022/03/12 08:45:11;;;;;;;;;;;;;;;10.54;36.99;96741.75;5001592;28;20500;-72
2022/03/12 08:47:38;;;;;;;;;;;;;;;10.55;37.10;96741.56;4999997;28;20402;-72
2022/03/12 08:50:08;;;;;;;;;;;;;;;10.29;36.52;96733.78;5007031;28;19948;-73
2022/03/12 08:52:35;;;;;;;;;;;;;;;10.03;37.49;96738.13;5012467;28;19955;-74
2022/03/12 08:55:01;;;;;;;;;;;;;;;9.92;37.21;96739.59;5008003;28;20417;-73
2022/03/12 08:57:27;;;;;;;;;;;;;;;9.89;37.60;96740.00;5013605;28;19965;-73
2022/03/12 08:59:53;;;;;;;;;;;;;;;9.76;37.47;96747.88;5009022;28;19961;-73
2022/03/12 09:02:20;;;;;;;;;;;;;;;9.41;37.64;96750.75;5009169;28;19999;-73
2022/03/12 09:04:46;;;;;;;;;;;;;;;9.12;37.86;96749.34;5008038;28;19968;-74
2022/03/12 09:07:12;;;;;;;;;;;;;;;8.98;38.64;96756.38;5006119;28;19959;-73
2022/03/12 09:09:38;;;;;;;;;;;;;;;8.93;38.83;96746.53;5003973;28;20004;-73
2022/03/12 09:12:04;;;;;;;;;;;;;;;8.89;38.99;96747.91;5007531;28;19968;-73
2022/03/12 09:14:34;;;;;;;;;;;;;;;8.85;39.08;96735.44;5006691;28;19976;-74
2022/03/12 09:17:02;;;;;;;;;;;;;;;8.83;39.07;96733.03;5007038;28;19958;-74
2022/03/12 09:19:28;;;;;;;;;;;;;;;8.89;39.23;96732.22;5001467;28;19954;-74
2022/03/12 09:21:56;;;;;;;;;;;;;;;8.99;39.23;96734.47;4990363;28;19957;-73
2022/03/12 09:24:22;;;;;;;;;;;;;;;8.98;39.30;96732.84;5007200;28;20337;-74
2022/03/12 09:26:48;;;;;;;;;;;;;;;9.03;39.45;96735.66;5007850;28;20453;-72
2022/03/12 09:29:14;;;;;;;;;;;;;;;9.20;39.01;96732.63;5010814;28;19962;-72
2022/03/12 09:31:39;;;;;;;;;;;;;;;9.30;38.65;96733.88;5006122;28;19959;-73
2022/03/12 09:34:06;;;;;;;;;;;;;;;9.41;38.49;96729.00;5002272;28;19979;-72
2022/03/12 09:36:33;;;;;;;;;;;;;;;9.46;38.66;96735.25;5007893;28;19951;-72
2022/03/12 09:38:59;;;;;;;;;;;;;;;9.61;38.65;96726.34;5004819;28;20315;-72
2022/03/12 09:41:25;;;;;;;;;;;;;;;9.82;38.53;96723.47;4999264;28;19948;-72
2022/03/12 09:43:51;;;;;;;;;;;;;;;10.02;38.38;96720.03;5005370;28;20000;-72
2022/03/12 09:46:18;;;;;;;;;;;;;;;10.18;38.57;96716.09;5011546;28;20348;-73
2022/03/12 09:48:43;;;;;;;;;;;;;;;10.50;38.20;96715.19;5008243;28;20297;-72
2022/03/12 09:51:10;;;;;;;;;;;;;;;10.79;37.58;96709.56;5003938;28;19959;-72
2022/03/12 09:53:35;;;;;;;;;;;;;;;10.90;36.98;96695.75;5007537;28;19957;-73
2022/03/12 09:56:01;;;;;;;;;;;;;;;11.02;36.93;96701.91;5004634;28;19964;-72
2022/03/12 09:58:27;;;;;;;;;;;;;;;11.19;38.12;96696.91;5006638;28;20320;-72
2022/03/12 10:00:53;;;;;;;;;;;;;;;11.41;37.31;96694.72;5007320;28;19966;-73
2022/03/12 10:03:19;;;;;;;;;;;;;;;11.61;36.92;96698.97;5004352;28;19974;-72
2022/03/12 10:05:45;;;;;;;;;;;;;;;11.75;37.64;96698.59;5003406;28;19963;-73
2022/03/12 10:08:11;;;;;;;;;;;;;;;11.89;37.33;96693.25;5004543;28;19967;-72
2022/03/12 10:10:37;;;;;;;;;;;;;;;12.02;37.18;96692.28;4996825;28;20020;-72
2022/03/12 10:13:04;;;;;;;;;;;;;;;12.15;36.53;96687.66;5006637;28;20015;-72
2022/03/12 10:15:30;;;;;;;;;;;;;;;12.35;36.00;96690.03;5008314;28;19963;-73
2022/03/12 10:17:56;;;;;;;;;;;;;;;12.51;36.50;96685.16;5006528;28;20001;-73
2022/03/12 10:20:22;;;;;;;;;;;;;;;12.49;35.37;96692.47;5003210;28;19960;-73
2022/03/12 10:22:48;;;;;;;;;;;;;;;12.51;35.21;96683.31;5009432;28;20012;-74
2022/03/12 10:25:14;;;;;;;;;;;;;;;12.55;34.96;96689.75;5004780;28;20457;-74
2022/03/12 10:27:41;;;;;;;;;;;;;;;12.64;36.03;96678.91;5007858;28;19965;-73
2022/03/12 10:30:07;;;;;;;;;;;;;;;12.76;36.03;96674.47;4985557;28;19954;-74
2022/03/12 10:32:41;;;;;;;;;;;;;;;12.95;36.24;96678.63;5005562;28;19979;-73
2022/03/12 10:35:07;;;;;;;;;;;;;;;13.15;35.96;96667.00;5006473;28;19964;-73
2022/03/12 10:37:34;;;;;;;;;;;;;;;13.35;35.64;96666.66;5001757;28;20424;-73
2022/03/12 10:40:14;;;;;;;;;;;;;;;13.57;35.19;96665.03;5005271;28;19970;-73
2022/03/12 10:42:45;;;;;;;;;;;;;;;13.78;35.31;96653.09;5006010;28;20429;-73
2022/03/12 10:45:15;;;;;;;;;;;;;;;13.93;35.61;96655.22;4986413;28;20455;-73
2022/03/12 10:47:42;;;;;;;;;;;;;;;14.05;34.40;96654.38;4995511;28;19960;-73
2022/03/12 10:50:11;;;;;;;;;;;;;;;13.90;34.09;96658.34;4995687;28;19964;-74
2022/03/12 10:52:40;;;;;;;;;;;;;;;13.71;35.62;96654.25;4995488;28;19967;-74
2022/03/12 10:55:10;;;;;;;;;;;;;;;13.51;36.05;96652.00;4978303;28;19976;-74
2022/03/12 10:57:36;;;;;;;;;;;;;;;13.29;37.54;96652.59;4995545;28;20317;-73
2022/03/12 11:00:08;;;;;;;;;;;;;;;13.32;37.87;96654.75;4995537;28;19955;-74
2022/03/12 11:02:34;;;;;;;;;;;;;;;13.39;37.90;96652.00;4995359;28;19954;-73
2022/03/12 11:05:04;;;;;;;;;;;;;;;13.36;36.66;96661.16;4995488;28;20364;-71
2022/03/12 11:07:30;;;;;;;;;;;;;;;13.38;36.86;96655.69;4995341;28;20029;-74
2022/03/12 11:09:56;;;;;;;;;;;;;;;13.51;37.34;96652.78;4995243;28;19976;-72
2022/03/12 11:12:29;;;;;;;;;;;;;;;13.61;37.28;96654.84;4995036;28;19964;-74
2022/03/12 11:15:15;;;;;;;;;;;;;;;13.84;37.65;96656.66;4978394;28;19975;-74
2022/03/12 11:17:45;;;;;;;;;;;;;;;14.05;37.01;96654.38;4995264;28;19953;-73
2022/03/12 11:20:14;;;;;;;;;;;;;;;14.16;36.78;96643.81;4995136;28;19959;-73
2022/03/12 11:22:40;;;;;;;;;;;;;;;14.30;36.08;96646.97;4994975;28;19957;-72
2022/03/12 11:25:09;;;;;;;;;;;;;;;14.34;36.32;96650.75;4995072;28;19964;-73
2022/03/12 11:27:35;;;;;;;;;;;;;;;14.35;35.53;96638.34;4994950;28;19959;-72
2022/03/12 11:30:08;;;;;;;;;;;;;;;14.31;34.98;96637.22;4994855;28;19961;-73
2022/03/12 11:32:37;;;;;;;;;;;;;;;14.27;34.73;96636.88;4994665;28;19959;-74
2022/03/12 11:35:06;;;;;;;;;;;;;;;13.98;35.02;96628.16;4994705;28;19977;-73
2022/03/12 11:37:34;;;;;;;;;;;;;;;13.75;35.66;96624.56;4994638;28;19965;-74
2022/03/12 11:40:00;;;;;;;;;;;;;;;13.70;35.94;96616.56;4994750;28;19959;-73
2022/03/12 11:42:27;;;;;;;;;;;;;;;13.64;34.48;96619.31;4994572;28;19961;-72
2022/03/12 11:44:54;;;;;;;;;;;;;;;13.76;35.63;96625.38;4998944;28;20444;-73
2022/03/12 11:47:21;;;;;;;;;;;;;;;13.89;34.84;96626.94;4999450;28;19957;-74
2022/03/12 11:49:47;;;;;;;;;;;;;;;13.96;35.97;96624.94;5009702;28;19960;-73
2022/03/12 11:52:15;;;;;;;;;;;;;;;14.10;35.59;96618.38;5005900;28;19954;-73
2022/03/12 11:54:45;;;;;;;;;;;;;;;14.23;35.92;96619.91;5007150;28;20200;-73
2022/03/12 11:57:12;;;;;;;;;;;;;;;14.37;35.14;96615.94;4999069;28;19966;-73
2022/03/12 11:59:41;;;;;;;;;;;;;;;14.51;34.82;96610.34;5003481;28;19959;-73
2022/03/12 12:02:25;;;;;;;;;;;;;;;14.46;34.47;96615.56;5005723;28;20308;-73
2022/03/12 12:04:52;;;;;;;;;;;;;;;14.35;33.86;96601.41;5003782;28;19958;-73
2022/03/12 12:07:19;;;;;;;;;;;;;;;14.28;34.87;96611.28;5004051;28;20338;-73
2022/03/12 12:09:45;;;;;;;;;;;;;;;14.14;34.96;96603.69;5000102;28;20061;-73
2022/03/12 12:12:12;;;;;;;;;;;;;;;14.17;35.48;96600.59;5003656;28;20417;-73
2022/03/12 12:14:39;;;;;;;;;;;;;;;14.31;35.75;96600.28;5004011;28;19978;-73
2022/03/12 12:17:05;;;;;;;;;;;;;;;14.43;35.79;96592.31;5000363;28;19960;-73
2022/03/12 12:19:31;;;;;;;;;;;;;;;14.44;34.80;96599.16;4997433;28;19961;-73
2022/03/12 12:21:57;;;;;;;;;;;;;;;14.44;35.34;96591.25;5007746;28;19954;-73
2022/03/12 12:24:24;;;;;;;;;;;;;;;14.60;35.06;96588.66;5010298;28;19962;-72
2022/03/12 12:27:18;;;;;;;;;;;;;;;14.48;33.92;96597.66;5020002;28;19963;-72
2022/03/12 12:29:44;;;;;;;;;;;;;;;14.39;34.18;96592.78;4998029;28;20333;-72
2022/03/12 12:32:11;;;;;;;;;;;;;;;14.33;34.82;96585.00;5009591;28;19954;-73
2022/03/12 12:34:56;;;;;;;;;;;;;;;14.21;34.60;96577.16;5008955;28;19961;-72
2022/03/12 12:37:41;;;;;;;;;;;;;;;14.06;35.22;96575.03;5001147;28;19952;-73
2022/03/12 12:40:36;;;;;;;;;;;;;;;13.98;34.95;96570.97;4990820;28;19952;-72
2022/03/12 12:43:05;;;;;;;;;;;;;;;14.11;35.41;96571.69;4974955;28;19947;-73
2022/03/12 12:45:32;;;;;;;;;;;;;;;14.23;35.71;96569.00;5018956;28;19975;-72
2022/03/12 12:48:07;;;;;;;;;;;;;;;14.38;35.24;96567.44;4989040;28;19963;-73
2022/03/12 12:50:34;;;;;;;;;;;;;;;14.38;35.15;96564.81;5008671;28;19957;-73
2022/03/12 12:53:10;;;;;;;;;;;;;;;14.34;35.93;96563.69;5013503;28;19962;-73
2022/03/12 12:55:37;;;;;;;;;;;;;;;14.19;35.25;96561.59;5008926;28;20003;-73
2022/03/12 12:58:03;;;;;;;;;;;;;;;14.12;35.56;96555.63;5008784;28;20431;-72
2022/03/12 13:00:32;;;;;;;;;;;;;;;14.05;35.27;96552.38;5006125;28;19954;-73